Keoyoung Sun — DSOD8 — position and weather

sailwx.info

Track history (hours):
 
Tides and Currents Weather Stations Pressure Air Temp Water Temp Dewpoint Dewpoint Depression Visibility Wind Speed Wind Dir Waves Ship Positions

Keoyoung Sun

Last reported at 2017-Oct-17 18:31 UTC. Time now 2017-Oct-19 05:30 UTC.
Position N 34°48' E 139°07'.

Length 64 m; draft 3.9 m.

Type: Tanker. MMSI: 440554000.

Date/timePositionNaut miles runAvg speedWind from/ knotsBaromVisibWave heightAir tempDewpointWater temp
2017-Oct-17 18:31N 34°48' E 139°07'311.6
2017-Oct-17 18:18N 34°51' E 139°08'2610.1
2017-Oct-17 15:44N 35°06' E 139°34'311.8
2017-Oct-17 15:30N 35°06' E 139°37'511.0
2017-Oct-17 15:00N 35°08' E 139°44'611.2
2017-Oct-17 14:30N 35°13' E 139°46'510.5
2017-Oct-17 14:00N 35°18' E 139°44'510.3
2017-Oct-17 13:30N 35°23' E 139°42'510.9
2017-Oct-17 13:00N 35°27' E 139°47'611.0
2017-Oct-17 12:30N 35°31' E 139°52'2 0.0
2017-Oct-15 16:23N 35°29' E 139°52'4 9.8
2017-Oct-15 16:00N 35°26' E 139°48'5 9.7
2017-Oct-15 15:30N 35°22' E 139°45'5 9.2
2017-Oct-15 15:00N 35°17' E 139°45'9 8.9
2017-Oct-15 14:00N 35°08' E 139°46'4 8.5
2017-Oct-15 13:30N 35°04' E 139°44'4 8.9
2017-Oct-15 13:00N 35°02' E 139°40'5 9.2
2017-Oct-15 12:30N 34°59' E 139°35'223 6.8
2017-Oct-14 03:38N 34°33' E 135°06'210.9
2017-Oct-14 03:29N 34°34' E 135°06'5 9.9
2017-Oct-14 03:00N 34°39' E 135°09'0 0.2
2017-Oct-14 02:26N 34°39' E 135°09'0 0.0
2017-Oct-14 01:56N 34°39' E 135°09'0 0.0
2017-Oct-14 01:20N 34°39' E 135°09'0 0.0
2017-Oct-14 00:56N 34°39' E 135°09'0 0.0
2017-Oct-14 00:20N 34°39' E 135°09'0 0.0
2017-Oct-13 23:56N 34°39' E 135°09'0 0.0
2017-Oct-13 23:26N 34°39' E 135°09'0 0.0
2017-Oct-13 22:56N 34°39' E 135°09'1 1.7
2017-Oct-13 22:30N 34°38' E 135°10'0 0.2
2017-Oct-13 21:56N 34°38' E 135°10'0 0.0
2017-Oct-13 21:26N 34°38' E 135°10'0 0.0
2017-Oct-13 20:50N 34°38' E 135°10'0 0.0
2017-Oct-13 20:20N 34°38' E 135°10'0 0.0
2017-Oct-13 19:56N 34°38' E 135°10'0 0.0
2017-Oct-13 19:26N 34°38' E 135°10'0 0.0
2017-Oct-13 18:56N 34°38' E 135°10'0 0.0
2017-Oct-13 18:26N 34°38' E 135°10'0 0.0
2017-Oct-13 17:56N 34°38' E 135°10'0 0.0
2017-Oct-13 17:26N 34°38' E 135°10'0 0.0
2017-Oct-13 16:56N 34°38' E 135°10'0 0.0
2017-Oct-13 16:20N 34°38' E 135°10'0 0.0
2017-Oct-13 15:56N 34°38' E 135°10'0 0.0
2017-Oct-13 15:26N 34°38' E 135°10'0 0.0
2017-Oct-13 14:56N 34°38' E 135°10'0 0.0
2017-Oct-13 14:26N 34°38' E 135°10'0 0.0
2017-Oct-13 13:56N 34°38' E 135°10'0 0.0
2017-Oct-13 13:26N 34°38' E 135°10'0 0.0
2017-Oct-13 12:50N 34°38' E 135°10'0 0.0
2017-Oct-13 12:30N 34°38' E 135°10'2 4.3
2017-Oct-13 11:59N 34°37' E 135°08'5 9.0
2017-Oct-13 11:28N 34°36' E 135°02'  
Track history (hours):
 
Tides and Currents Weather Stations Pressure Air Temp Water Temp Dewpoint Dewpoint Depression Visibility Wind Speed Wind Dir Waves Ship Positions

Keoyoung Sun

Last reported at 2017-Oct-17 18:31 UTC. Time now 2017-Oct-19 05:30 UTC.
Position N 34°48' E 139°07'.

Length 64 m; draft 3.9 m.

Type: Tanker. MMSI: 440554000.

Date/timePositionNaut miles runAvg speedWind from/ knotsBaromVisibWave heightAir tempDewpointWater temp
2017-Oct-17 18:31N 34°48' E 139°07'311.6
2017-Oct-17 18:18N 34°51' E 139°08'2610.1
2017-Oct-17 15:44N 35°06' E 139°34'311.8
2017-Oct-17 15:30N 35°06' E 139°37'511.0
2017-Oct-17 15:00N 35°08' E 139°44'611.2
2017-Oct-17 14:30N 35°13' E 139°46'510.5
2017-Oct-17 14:00N 35°18' E 139°44'510.3
2017-Oct-17 13:30N 35°23' E 139°42'510.9
2017-Oct-17 13:00N 35°27' E 139°47'611.0
2017-Oct-17 12:30N 35°31' E 139°52'2 0.0
2017-Oct-15 16:23N 35°29' E 139°52'4 9.8
2017-Oct-15 16:00N 35°26' E 139°48'5 9.7
2017-Oct-15 15:30N 35°22' E 139°45'5 9.2
2017-Oct-15 15:00N 35°17' E 139°45'9 8.9
2017-Oct-15 14:00N 35°08' E 139°46'4 8.5
2017-Oct-15 13:30N 35°04' E 139°44'4 8.9
2017-Oct-15 13:00N 35°02' E 139°40'5 9.2
2017-Oct-15 12:30N 34°59' E 139°35'223 6.8
2017-Oct-14 03:38N 34°33' E 135°06'210.9
2017-Oct-14 03:29N 34°34' E 135°06'5 9.9
2017-Oct-14 03:00N 34°39' E 135°09'0 0.2
2017-Oct-14 02:26N 34°39' E 135°09'0 0.0
2017-Oct-14 01:56N 34°39' E 135°09'0 0.0
2017-Oct-14 01:20N 34°39' E 135°09'0 0.0
2017-Oct-14 00:56N 34°39' E 135°09'0 0.0
2017-Oct-14 00:20N 34°39' E 135°09'0 0.0
2017-Oct-13 23:56N 34°39' E 135°09'0 0.0
2017-Oct-13 23:26N 34°39' E 135°09'0 0.0
2017-Oct-13 22:56N 34°39' E 135°09'1 1.7
2017-Oct-13 22:30N 34°38' E 135°10'0 0.2
2017-Oct-13 21:56N 34°38' E 135°10'0 0.0
2017-Oct-13 21:26N 34°38' E 135°10'0 0.0
2017-Oct-13 20:50N 34°38' E 135°10'0 0.0
2017-Oct-13 20:20N 34°38' E 135°10'0 0.0
2017-Oct-13 19:56N 34°38' E 135°10'0 0.0
2017-Oct-13 19:26N 34°38' E 135°10'0 0.0
2017-Oct-13 18:56N 34°38' E 135°10'0 0.0
2017-Oct-13 18:26N 34°38' E 135°10'0 0.0
2017-Oct-13 17:56N 34°38' E 135°10'0 0.0
2017-Oct-13 17:26N 34°38' E 135°10'0 0.0
2017-Oct-13 16:56N 34°38' E 135°10'0 0.0
2017-Oct-13 16:20N 34°38' E 135°10'0 0.0
2017-Oct-13 15:56N 34°38' E 135°10'0 0.0
2017-Oct-13 15:26N 34°38' E 135°10'0 0.0
2017-Oct-13 14:56N 34°38' E 135°10'0 0.0
2017-Oct-13 14:26N 34°38' E 135°10'0 0.0
2017-Oct-13 13:56N 34°38' E 135°10'0 0.0
2017-Oct-13 13:26N 34°38' E 135°10'0 0.0
2017-Oct-13 12:50N 34°38' E 135°10'0 0.0
2017-Oct-13 12:30N 34°38' E 135°10'2 4.3
2017-Oct-13 11:59N 34°37' E 135°08'5 9.0
2017-Oct-13 11:28N 34°36' E 135°02'  

Dump ship's entire track history